Time;durP1;ratioP1;P1;durP2;ratioP2;P2;SDS_P1;SDS_P2;PMS_P1;PMS_P2;Temp;Humidity;BMP_temperature;BMP_pressure;BME280_temperature;BME280_humidity;BME280_pressure;Samples;Min_cycle;Max_cycle;Signal;HPM_P1;HPM_P2
2023/03/04 00:01:15;;;;;;;12.05;8.38;;;19.90;67.50;;;;;;5045552;28;20204;-62
2023/03/04 00:03:42;;;;;;;15.02;6.93;;;19.90;67.50;;;;;;5044384;28;20610;-64
2023/03/04 00:06:09;;;;;;;13.10;8.05;;;19.90;67.50;;;;;;5049185;28;20658;-65
2023/03/04 00:08:36;;;;;;;10.07;7.50;;;19.90;67.50;;;;;;5043915;28;20196;-64
2023/03/04 00:11:03;;;;;;;12.32;7.93;;;19.90;67.50;;;;;;5043948;28;20191;-62
2023/03/04 00:13:30;;;;;;;13.77;8.88;;;19.90;67.50;;;;;;5045036;28;20222;-62
2023/03/04 00:15:57;;;;;;;11.07;7.35;;;19.90;67.50;;;;;;5046933;28;20659;-62
2023/03/04 00:18:25;;;;;;;13.55;8.15;;;19.90;67.50;;;;;;5051549;28;20192;-64
2023/03/04 00:20:52;;;;;;;10.05;7.97;;;19.90;67.50;;;;;;5051967;28;20196;-62
2023/03/04 00:23:18;;;;;;;11.65;7.40;;;19.90;67.50;;;;;;5050850;28;20219;-62
2023/03/04 00:25:45;;;;;;;13.57;8.15;;;19.90;67.50;;;;;;5045492;28;20207;-63
2023/03/04 00:28:12;;;;;;;12.90;8.05;;;19.90;67.50;;;;;;5043113;28;20619;-63
2023/03/04 00:30:38;;;;;;;10.35;7.70;;;19.80;67.40;;;;;;5043563;28;20195;-62
2023/03/04 00:33:05;;;;;;;14.02;8.98;;;19.80;67.40;;;;;;5051982;28;20222;-63
2023/03/04 00:35:33;;;;;;;11.40;7.30;;;19.90;67.50;;;;;;5050076;28;20199;-64
2023/03/04 00:38:00;;;;;;;11.55;7.72;;;19.80;67.30;;;;;;5052537;28;20223;-61
2023/03/04 00:40:27;;;;;;;10.82;7.50;;;19.80;67.30;;;;;;5048460;28;20203;-66
2023/03/04 00:42:53;;;;;;;11.00;7.65;;;19.80;67.40;;;;;;5052062;28;20226;-63
2023/03/04 00:45:20;;;;;;;10.98;7.63;;;19.80;67.30;;;;;;5051849;28;20191;-63
2023/03/04 00:47:47;;;;;;;10.85;7.82;;;19.80;67.30;;;;;;5044644;28;20563;-63
2023/03/04 00:50:13;;;;;;;9.27;6.50;;;19.80;67.30;;;;;;5045671;28;20202;-62
2023/03/04 00:52:41;;;;;;;10.95;7.45;;;19.80;67.30;;;;;;5051820;28;20617;-63
2023/03/04 00:55:09;;;;;;;9.85;7.07;;;19.80;67.30;;;;;;5042352;28;20191;-63
2023/03/04 00:57:36;;;;;;;10.35;6.70;;;19.80;67.30;;;;;;5046698;28;20207;-63
2023/03/04 01:00:03;;;;;;;8.82;6.43;;;19.80;67.30;;;;;;5042938;28;20566;-63
2023/03/04 01:02:30;;;;;;;11.07;7.68;;;19.80;67.40;;;;;;5038632;28;20202;-64
2023/03/04 01:04:57;;;;;;;9.05;6.50;;;19.80;67.30;;;;;;5042805;28;20206;-66
2023/03/04 01:07:23;;;;;;;9.10;6.72;;;19.80;67.30;;;;;;5044584;28;20222;-65
2023/03/04 01:09:51;;;;;;;10.48;7.05;;;19.80;67.30;;;;;;5045762;28;20207;-64
2023/03/04 01:12:18;;;;;;;10.60;6.63;;;19.80;67.30;;;;;;5043049;28;20222;-63
2023/03/04 01:14:45;;;;;;;11.20;7.75;;;19.80;67.30;;;;;;5039386;28;20671;-62
2023/03/04 01:17:12;;;;;;;10.63;7.47;;;19.80;67.30;;;;;;5047683;28;20202;-62
2023/03/04 01:19:38;;;;;;;10.63;6.72;;;19.80;67.30;;;;;;5047225;28;20655;-63
2023/03/04 01:22:05;;;;;;;10.32;6.93;;;19.80;67.30;;;;;;5048750;28;20215;-62
2023/03/04 01:24:32;;;;;;;8.75;6.28;;;19.80;67.20;;;;;;5048661;28;20215;-61
2023/03/04 01:27:00;;;;;;;8.98;6.07;;;19.80;67.30;;;;;;5044564;28;20200;-64
2023/03/04 01:29:26;;;;;;;8.85;6.50;;;19.80;67.20;;;;;;5046432;28;20192;-63
2023/03/04 01:31:53;;;;;;;9.95;6.82;;;19.80;68.10;;;;;;5046140;28;20203;-63
2023/03/04 01:34:20;;;;;;;9.00;6.65;;;19.80;67.20;;;;;;5047929;28;20655;-66
2023/03/04 01:36:47;;;;;;;10.43;6.72;;;19.80;67.30;;;;;;5038791;28;20208;-64
2023/03/04 01:39:13;;;;;;;8.10;6.57;;;19.80;67.20;;;;;;5043920;28;20565;-62
2023/03/04 01:41:40;;;;;;;8.23;6.90;;;19.80;67.20;;;;;;5042887;28;20203;-65
2023/03/04 01:44:10;;;;;;;9.32;6.50;;;19.80;67.20;;;;;;5044044;28;20219;-63
2023/03/04 01:46:38;;;;;;;12.07;7.75;;;19.80;67.20;;;;;;5041273;28;20205;-64
2023/03/04 01:49:06;;;;;;;9.10;6.50;;;19.80;67.20;;;;;;5043992;28;20203;-62
2023/03/04 01:51:33;;;;;;;7.40;5.78;;;19.80;67.20;;;;;;5049644;28;20686;-62
2023/03/04 01:54:00;;;;;;;9.98;6.75;;;19.80;67.20;;;;;;5045602;28;20223;-63
2023/03/04 01:56:29;;;;;;;8.15;6.15;;;19.80;67.60;;;;;;5047845;28;20631;-67
2023/03/04 01:59:12;;;;;;;7.97;6.30;;;19.70;67.00;;;;;;5043998;28;20199;-62
2023/03/04 02:01:41;;;;;;;8.90;6.22;;;19.70;67.00;;;;;;5044465;28;20188;-63
2023/03/04 02:04:09;;;;;;;9.63;6.82;;;19.70;67.00;;;;;;5035992;28;20590;-66
2023/03/04 02:06:36;;;;;;;8.30;6.55;;;19.70;67.00;;;;;;5034624;28;20576;-63
2023/03/04 02:09:04;;;;;;;7.55;6.15;;;19.70;67.00;;;;;;5037606;28;20198;-63
2023/03/04 02:11:32;;;;;;;8.25;5.88;;;19.70;67.00;;;;;;5033011;28;20199;-62
2023/03/04 02:13:59;;;;;;;7.80;5.95;;;19.70;67.00;;;;;;5035733;28;20230;-63
2023/03/04 02:16:27;;;;;;;8.48;6.57;;;19.70;67.00;;;;;;5035482;28;20207;-63
2023/03/04 02:18:54;;;;;;;8.95;6.55;;;19.70;67.00;;;;;;5037806;28;20200;-63
2023/03/04 02:21:24;;;;;;;6.75;5.82;;;19.70;66.90;;;;;;5047048;28;20591;-64
2023/03/04 02:23:59;;;;;;;8.50;6.35;;;19.70;66.90;;;;;;5048073;28;20234;-64
2023/03/04 02:26:28;;;;;;;6.07;5.28;;;19.70;66.90;;;;;;5047035;28;20199;-62
2023/03/04 02:28:57;;;;;;;8.60;6.22;;;19.70;66.90;;;;;;5042209;28;20204;-63
2023/03/04 02:31:30;;;;;;;7.32;5.20;;;19.70;66.90;;;;;;5040544;28;20542;-63
2023/03/04 02:34:00;;;;;;;9.77;5.45;;;19.70;66.90;;;;;;5040660;28;20215;-63
2023/03/04 02:36:27;;;;;;;8.05;5.97;;;19.70;66.90;;;;;;5041676;28;20580;-61
2023/03/04 02:38:56;;;;;;;5.78;4.65;;;19.70;66.90;;;;;;5047766;28;20563;-62
2023/03/04 02:41:26;;;;;;;7.30;6.28;;;19.70;66.90;;;;;;5040907;28;20195;-62
2023/03/04 02:43:55;;;;;;;7.70;6.10;;;19.70;66.90;;;;;;5047222;28;20207;-62
2023/03/04 02:46:23;;;;;;;9.38;6.07;;;19.70;66.90;;;;;;5047124;28;20769;-62
2023/03/04 02:48:50;;;;;;;7.50;5.40;;;19.70;66.80;;;;;;5041463;28;21951;-63
2023/03/04 02:51:17;;;;;;;7.40;5.85;;;19.70;66.80;;;;;;5041519;28;20201;-61
2023/03/04 02:53:44;;;;;;;8.50;6.07;;;19.70;66.90;;;;;;5044885;28;20239;-64
2023/03/04 02:56:10;;;;;;;7.70;5.38;;;19.70;67.60;;;;;;5044365;28;20189;-62
2023/03/04 02:58:37;;;;;;;7.88;5.63;;;19.70;66.80;;;;;;5044895;28;20212;-67
2023/03/04 03:01:05;;;;;;;6.68;5.10;;;19.70;66.80;;;;;;5043725;28;20202;-66
2023/03/04 03:03:32;;;;;;;7.82;6.03;;;19.70;66.80;;;;;;5037732;28;20205;-62
2023/03/04 03:05:59;;;;;;;5.60;4.55;;;19.70;66.80;;;;;;5043788;28;20186;-65
2023/03/04 03:08:26;;;;;;;7.93;4.85;;;19.70;66.80;;;;;;5042796;28;20215;-63
2023/03/04 03:10:53;;;;;;;6.57;5.75;;;19.70;66.80;;;;;;5038806;28;20195;-62
2023/03/04 03:13:19;;;;;;;8.18;5.35;;;19.70;66.80;;;;;;5037821;28;21826;-62
2023/03/04 03:15:46;;;;;;;6.40;5.57;;;19.70;67.60;;;;;;5040743;28;20233;-62
2023/03/04 03:18:14;;;;;;;7.25;5.40;;;19.70;66.80;;;;;;5039809;28;20203;-63
2023/03/04 03:20:41;;;;;;;6.35;5.13;;;19.70;66.70;;;;;;5039621;28;20198;-62
2023/03/04 03:23:08;;;;;;;7.88;6.03;;;19.70;66.80;;;;;;5040805;28;20230;-62
2023/03/04 03:25:35;;;;;;;8.18;6.00;;;19.70;66.70;;;;;;5044459;28;20200;-66
2023/03/04 03:28:01;;;;;;;7.30;5.65;;;19.70;66.80;;;;;;5042646;28;20225;-62
2023/03/04 03:30:28;;;;;;;6.28;5.65;;;19.70;66.70;;;;;;5033926;28;20199;-62
2023/03/04 03:32:55;;;;;;;8.43;5.18;;;19.70;66.70;;;;;;5039632;28;20220;-64
2023/03/04 03:35:23;;;;;;;7.43;5.30;;;19.70;66.70;;;;;;5036614;28;20571;-62
2023/03/04 03:37:49;;;;;;;8.93;6.05;;;19.70;66.70;;;;;;5042310;28;20191;-63
2023/03/04 03:40:16;;;;;;;6.57;5.10;;;19.70;66.70;;;;;;5043747;28;20196;-64
2023/03/04 03:42:43;;;;;;;5.82;5.22;;;19.70;66.70;;;;;;5042624;28;20203;-62
2023/03/04 03:45:11;;;;;;;5.80;5.15;;;19.70;66.70;;;;;;5042544;28;20203;-65
2023/03/04 03:47:38;;;;;;;5.50;4.78;;;19.70;66.70;;;;;;5047449;28;20614;-65
2023/03/04 03:50:06;;;;;;;5.93;4.80;;;19.70;66.70;;;;;;5040775;28;20191;-63
2023/03/04 03:52:34;;;;;;;7.25;5.25;;;19.70;66.70;;;;;;5041255;28;20206;-61
2023/03/04 03:55:01;;;;;;;8.18;4.90;;;19.70;66.70;;;;;;5044756;28;20218;-62
2023/03/04 03:57:28;;;;;;;8.38;5.25;;;19.70;66.70;;;;;;5039009;28;20264;-65
2023/03/04 03:59:55;;;;;;;6.18;4.72;;;19.70;66.60;;;;;;5044291;28;20191;-62
2023/03/04 04:02:22;;;;;;;6.20;4.97;;;19.70;66.60;;;;;;5041286;28;20754;-63
2023/03/04 04:04:49;;;;;;;5.95;4.40;;;19.70;66.60;;;;;;5038084;28;20203;-63
2023/03/04 04:07:15;;;;;;;5.53;4.50;;;19.70;66.60;;;;;;5042992;28;20226;-62
2023/03/04 04:09:43;;;;;;;7.90;4.63;;;19.70;66.60;;;;;;5043527;28;20575;-64
2023/03/04 04:12:13;;;;;;;7.05;4.45;;;19.70;66.50;;;;;;5038063;28;20203;-64
2023/03/04 04:14:40;;;;;;;6.50;4.55;;;19.70;66.60;;;;;;5042540;28;20301;-62
2023/03/04 04:17:07;;;;;;;7.50;4.45;;;19.60;66.50;;;;;;5043582;28;20191;-62
2023/03/04 04:19:34;;;;;;;6.45;4.75;;;19.70;66.50;;;;;;5045548;28;20199;-62
2023/03/04 04:22:01;;;;;;;5.32;4.50;;;19.60;66.40;;;;;;5043050;28;20218;-64
2023/03/04 04:24:27;;;;;;;4.97;4.47;;;19.70;66.50;;;;;;5042113;28;20209;-65
2023/03/04 04:26:56;;;;;;;6.13;4.93;;;19.60;66.40;;;;;;5046966;28;20386;-62
2023/03/04 04:29:22;;;;;;;5.70;4.18;;;19.60;66.40;;;;;;5047052;28;20200;-62
2023/03/04 04:31:49;;;;;;;5.45;4.60;;;19.60;66.40;;;;;;5042061;28;20235;-63
2023/03/04 04:34:16;;;;;;;5.00;4.45;;;19.60;66.40;;;;;;5042964;28;20220;-62
2023/03/04 04:36:43;;;;;;;7.75;4.75;;;19.60;66.40;;;;;;5046357;28;20196;-63
2023/03/04 04:39:10;;;;;;;5.28;3.90;;;19.60;66.40;;;;;;5044058;28;20207;-62
2023/03/04 04:41:38;;;;;;;5.03;4.15;;;19.60;66.40;;;;;;5043798;28;20195;-63
2023/03/04 04:44:07;;;;;;;5.95;5.00;;;19.60;66.40;;;;;;5039265;28;20208;-62
2023/03/04 04:46:34;;;;;;;7.30;4.90;;;19.60;66.40;;;;;;5046006;28;20662;-62
2023/03/04 04:49:02;;;;;;;5.32;4.35;;;19.60;66.40;;;;;;5045714;28;20196;-62
2023/03/04 04:51:29;;;;;;;7.32;5.60;;;19.60;66.40;;;;;;5045934;28;20214;-62
2023/03/04 04:53:56;;;;;;;6.35;4.50;;;19.60;66.40;;;;;;5049602;28;20228;-64
2023/03/04 04:56:25;;;;;;;5.45;4.68;;;19.60;66.30;;;;;;5048058;28;20859;-62
2023/03/04 04:58:53;;;;;;;6.43;4.78;;;19.60;66.40;;;;;;5045963;28;20203;-62
2023/03/04 05:01:22;;;;;;;4.38;3.85;;;19.60;66.40;;;;;;5044557;28;20574;-62
2023/03/04 05:03:51;;;;;;;5.53;4.43;;;19.60;67.10;;;;;;5042357;28;20672;-64
2023/03/04 05:06:19;;;;;;;8.00;4.68;;;19.60;66.30;;;;;;5042493;28;20291;-61
2023/03/04 05:08:46;;;;;;;5.82;4.38;;;19.60;66.30;;;;;;5044986;28;20218;-63
2023/03/04 05:11:13;;;;;;;4.85;4.00;;;19.60;66.30;;;;;;5047268;28;20195;-64
2023/03/04 05:13:40;;;;;;;6.57;5.03;;;19.60;66.30;;;;;;5041371;28;20221;-62
2023/03/04 05:16:07;;;;;;;3.97;3.08;;;19.60;66.30;;;;;;5037348;28;20200;-61
2023/03/04 05:18:36;;;;;;;6.00;4.43;;;19.60;66.30;;;;;;5045253;28;20202;-61
2023/03/04 05:21:04;;;;;;;5.15;4.25;;;19.60;66.30;;;;;;5039447;28;20196;-62
2023/03/04 05:23:33;;;;;;;5.85;4.57;;;19.60;66.30;;;;;;5041458;28;20234;-61
2023/03/04 05:25:59;;;;;;;4.10;3.67;;;19.60;66.30;;;;;;5041069;28;20656;-65
2023/03/04 05:28:26;;;;;;;6.45;4.70;;;19.60;66.30;;;;;;5044845;28;20201;-61
2023/03/04 05:30:53;;;;;;;5.95;3.97;;;19.60;66.30;;;;;;5043239;28;20218;-66
2023/03/04 05:33:20;;;;;;;6.93;4.00;;;19.60;66.30;;;;;;5047700;28;20215;-62
2023/03/04 05:35:49;;;;;;;5.25;4.28;;;19.60;66.30;;;;;;5046627;28;20203;-61
2023/03/04 05:38:17;;;;;;;5.68;3.85;;;19.60;66.20;;;;;;5040346;28;20560;-62
2023/03/04 05:40:44;;;;;;;7.40;4.38;;;19.60;66.30;;;;;;5040796;28;20839;-63
2023/03/04 05:43:12;;;;;;;4.20;3.55;;;19.60;66.20;;;;;;5036273;28;20211;-63
2023/03/04 05:45:39;;;;;;;5.90;3.85;;;19.60;66.30;;;;;;5031180;28;20200;-62
2023/03/04 05:48:07;;;;;;;4.07;3.60;;;19.60;66.20;;;;;;5031615;28;20200;-64
2023/03/04 05:50:34;;;;;;;5.50;4.05;;;19.60;66.30;;;;;;5037503;28;20199;-67
2023/03/04 05:53:03;;;;;;;6.30;4.38;;;19.60;66.20;;;;;;5037969;28;20700;-67
2023/03/04 05:55:29;;;;;;;4.30;3.90;;;19.60;66.20;;;;;;5039856;28;20587;-62
2023/03/04 05:57:56;;;;;;;4.95;3.85;;;19.60;66.20;;;;;;5042962;28;20190;-62
2023/03/04 06:00:23;;;;;;;5.95;4.68;;;19.60;66.20;;;;;;5038992;28;20287;-62
2023/03/04 06:02:50;;;;;;;4.68;4.13;;;19.60;66.20;;;;;;5047545;28;20203;-66
2023/03/04 06:05:18;;;;;;;4.07;3.67;;;19.60;66.20;;;;;;5044217;28;20225;-62
2023/03/04 06:07:44;;;;;;;4.00;3.58;;;19.60;66.20;;;;;;5043136;28;20202;-66
2023/03/04 06:10:15;;;;;;;4.60;3.85;;;19.60;66.20;;;;;;5039468;28;20196;-65
2023/03/04 06:12:42;;;;;;;3.97;3.47;;;19.60;66.20;;;;;;5041696;28;20190;-63
2023/03/04 06:15:10;;;;;;;4.80;4.35;;;19.60;66.20;;;;;;5042023;28;20230;-62
2023/03/04 06:17:37;;;;;;;5.32;3.88;;;19.60;66.20;;;;;;5043500;28;20194;-62
2023/03/04 06:20:05;;;;;;;5.80;4.07;;;19.60;66.20;;;;;;5047347;28;20227;-63
2023/03/04 06:22:33;;;;;;;4.95;4.15;;;19.60;66.20;;;;;;5044066;28;20591;-62
2023/03/04 06:25:00;;;;;;;6.05;4.32;;;19.60;66.10;;;;;;5045255;28;20230;-64
2023/03/04 06:27:28;;;;;;;4.88;3.47;;;19.60;66.10;;;;;;5039772;28;20207;-63
2023/03/04 06:29:55;;;;;;;4.00;3.70;;;19.60;66.10;;;;;;5045607;28;20199;-63
2023/03/04 06:32:22;;;;;;;4.15;3.28;;;19.60;66.10;;;;;;5047202;28;20219;-63
2023/03/04 06:34:48;;;;;;;4.30;3.50;;;19.60;66.10;;;;;;5043388;28;20227;-61
2023/03/04 06:37:15;;;;;;;4.57;3.60;;;19.60;66.10;;;;;;5048856;28;20199;-61
2023/03/04 06:39:42;;;;;;;4.95;3.17;;;19.60;66.10;;;;;;5040763;28;20199;-63
2023/03/04 06:42:08;;;;;;;5.95;4.40;;;19.60;66.10;;;;;;5047919;28;20195;-63
2023/03/04 06:44:36;;;;;;;4.03;3.30;;;19.60;66.20;;;;;;5045122;28;20196;-62
2023/03/04 06:47:03;;;;;;;4.18;3.63;;;19.60;66.10;;;;;;5046407;28;20659;-63
2023/03/04 06:49:30;;;;;;;7.38;4.07;;;19.60;66.10;;;;;;5047869;28;20250;-62
2023/03/04 06:51:57;;;;;;;4.88;3.70;;;19.60;66.10;;;;;;5046186;28;20195;-62
2023/03/04 06:54:23;;;;;;;4.43;4.03;;;19.60;66.20;;;;;;5048825;28;20218;-61
2023/03/04 06:56:50;;;;;;;5.05;3.80;;;19.60;66.20;;;;;;5046049;28;20198;-63
2023/03/04 06:59:17;;;;;;;4.38;3.15;;;19.60;66.00;;;;;;5045097;28;20574;-62
2023/03/04 07:01:45;;;;;;;4.72;3.70;;;19.60;66.00;;;;;;5044640;28;20191;-62
2023/03/04 07:04:13;;;;;;;5.03;3.58;;;19.60;66.00;;;;;;5041042;28;20206;-63
2023/03/04 07:06:40;;;;;;;5.72;3.70;;;19.60;66.00;;;;;;5045153;28;20667;-64
2023/03/04 07:09:07;;;;;;;4.22;3.22;;;19.60;66.00;;;;;;5037826;28;20823;-65
2023/03/04 07:11:34;;;;;;;4.60;3.38;;;19.60;66.00;;;;;;5038345;28;20931;-63
2023/03/04 07:14:00;;;;;;;4.40;3.28;;;19.60;66.00;;;;;;5044889;28;20227;-62
2023/03/04 07:16:27;;;;;;;4.57;3.65;;;19.60;66.00;;;;;;5038756;28;20559;-62
2023/03/04 07:18:55;;;;;;;3.05;2.70;;;19.70;66.20;;;;;;5044889;28;20214;-64
2023/03/04 07:21:22;;;;;;;3.25;2.97;;;19.70;66.20;;;;;;5038318;28;20195;-64
2023/03/04 07:23:48;;;;;;;3.38;3.08;;;19.70;66.10;;;;;;5043168;28;20572;-62
2023/03/04 07:26:16;;;;;;;4.05;3.28;;;19.70;66.10;;;;;;5043120;28;21466;-65
2023/03/04 07:28:43;;;;;;;3.60;3.15;;;19.70;66.20;;;;;;5040101;28;20196;-63
2023/03/04 07:31:12;;;;;;;4.38;2.85;;;19.70;66.10;;;;;;5043842;28;20671;-62
2023/03/04 07:33:38;;;;;;;3.92;3.30;;;19.70;66.20;;;;;;5040218;28;20489;-63
2023/03/04 07:36:07;;;;;;;5.85;3.40;;;19.70;66.20;;;;;;5037346;28;22487;-62
2023/03/04 07:38:33;;;;;;;4.80;3.20;;;19.70;66.30;;;;;;5036726;28;20199;-62
2023/03/04 07:41:00;;;;;;;3.75;3.38;;;19.70;66.40;;;;;;5044064;28;20200;-63
2023/03/04 07:43:27;;;;;;;13.13;2.85;;;19.70;66.40;;;;;;5038682;28;20219;-65
2023/03/04 07:45:59;;;;;;;3.35;2.92;;;19.70;67.00;;;;;;5041494;28;20195;-56
2023/03/04 07:48:26;;;;;;;5.72;3.15;;;19.70;66.80;;;;;;5041391;28;20245;-62
2023/03/04 07:51:08;;;;;;;4.10;3.03;;;19.70;67.50;;;;;;5038624;28;20195;-60
2023/03/04 07:53:36;;;;;;;12.23;3.17;;;19.70;66.70;;;;;;5039893;28;20199;-59
2023/03/04 07:56:02;;;;;;;4.47;3.17;;;19.70;67.50;;;;;;5040564;28;20219;-63
2023/03/04 07:58:29;;;;;;;4.13;3.05;;;19.70;67.60;;;;;;5039923;28;20191;-52
2023/03/04 08:00:56;;;;;;;3.35;2.80;;;19.70;66.90;;;;;;5037571;28;20199;-59
2023/03/04 08:03:23;;;;;;;5.90;3.45;;;19.70;66.70;;;;;;5044802;28;20647;-56
2023/03/04 08:05:50;;;;;;;4.20;3.05;;;19.70;66.70;;;;;;5048584;28;20196;-54
2023/03/04 08:08:18;;;;;;;4.80;2.50;;;19.70;66.60;;;;;;5044382;28;20209;-62
2023/03/04 08:10:45;;;;;;;3.65;2.95;;;19.70;66.50;;;;;;5040569;28;20215;-64
2023/03/04 08:13:12;;;;;;;2.75;2.15;;;19.70;66.50;;;;;;5042892;28;20218;-62
2023/03/04 08:15:40;;;;;;;4.25;2.83;;;19.70;66.50;;;;;;5049084;28;20285;-63
2023/03/04 08:18:07;;;;;;;4.28;3.08;;;19.70;66.50;;;;;;5048827;28;20202;-63
2023/03/04 08:20:34;;;;;;;2.92;2.60;;;19.70;66.60;;;;;;5049052;28;20202;-61
2023/03/04 08:23:00;;;;;;;3.25;2.63;;;19.70;66.70;;;;;;5049810;28;20223;-63
2023/03/04 08:25:29;;;;;;;2.83;2.55;;;19.70;66.70;;;;;;5049172;28;20200;-61
2023/03/04 08:27:55;;;;;;;7.45;2.40;;;19.70;67.00;;;;;;5050583;28;20195;-62
2023/03/04 08:30:22;;;;;;;3.50;2.60;;;19.70;67.10;;;;;;5050566;28;20203;-62
2023/03/04 08:32:49;;;;;;;5.13;3.50;;;19.70;67.30;;;;;;5053263;28;20200;-63
2023/03/04 08:35:16;;;;;;;3.25;2.95;;;19.70;67.40;;;;;;5052143;28;20228;-59
2023/03/04 08:37:43;;;;;;;3.80;2.85;;;19.70;67.50;;;;;;5049706;28;20194;-61
2023/03/04 08:40:12;;;;;;;4.65;2.50;;;19.70;67.50;;;;;;5048934;28;20200;-61
2023/03/04 08:42:40;;;;;;;3.85;2.08;;;19.70;67.60;;;;;;5047895;28;20509;-57
2023/03/04 08:45:08;;;;;;;4.90;2.90;;;19.80;67.80;;;;;;5050686;28;20199;-61
2023/03/04 08:47:35;;;;;;;2.92;2.58;;;19.80;67.90;;;;;;5050652;28;20575;-60
2023/03/04 08:50:01;;;;;;;3.75;2.70;;;19.80;68.00;;;;;;5048595;28;20199;-61
2023/03/04 08:52:29;;;;;;;3.50;2.97;;;19.80;68.10;;;;;;5047774;28;20647;-63
2023/03/04 08:54:56;;;;;;;2.97;2.63;;;19.80;68.10;;;;;;5052931;28;20625;-58
2023/03/04 08:57:22;;;;;;;4.32;3.10;;;19.90;69.00;;;;;;5048855;28;20630;-57
2023/03/04 08:59:50;;;;;;;3.10;2.65;;;19.90;68.20;;;;;;5038312;28;20192;-61
2023/03/04 09:02:17;;;;;;;4.75;2.60;;;19.90;68.30;;;;;;5047866;28;20196;-57
2023/03/04 09:04:44;;;;;;;4.65;3.10;;;19.90;68.30;;;;;;5041357;28;20202;-62
2023/03/04 09:07:11;;;;;;;4.55;3.00;;;19.90;68.30;;;;;;5052109;28;20195;-53
2023/03/04 09:09:37;;;;;;;5.05;2.65;;;19.90;68.30;;;;;;5041500;28;20215;-56
2023/03/04 09:12:04;;;;;;;4.07;3.03;;;19.90;68.30;;;;;;5053022;28;20195;-58
2023/03/04 09:14:32;;;;;;;3.00;2.55;;;19.80;68.20;;;;;;5041978;28;20979;-59
2023/03/04 09:17:00;;;;;;;5.47;2.40;;;19.80;68.20;;;;;;5044449;28;20567;-55
2023/03/04 09:19:27;;;;;;;5.43;3.17;;;19.70;66.40;;;;;;5045335;28;20199;-54
2023/03/04 09:21:54;;;;;;;3.45;2.22;;;19.70;67.20;;;;;;5043369;28;20686;-58
2023/03/04 09:24:21;;;;;;;4.57;2.17;;;19.70;67.90;;;;;;5046826;28;20196;-55
2023/03/04 09:26:51;;;;;;;3.13;2.10;;;19.70;67.30;;;;;;5052468;28;20199;-60
2023/03/04 09:29:17;;;;;;;2.92;2.50;;;19.70;67.30;;;;;;5043309;28;20246;-57
2023/03/04 09:31:44;;;;;;;2.83;2.47;;;19.70;67.00;;;;;;5048837;28;20195;-57
2023/03/04 09:34:12;;;;;;;4.38;2.20;;;19.70;66.70;;;;;;5049501;28;20651;-56
2023/03/04 09:36:39;;;;;;;3.75;2.78;;;19.70;66.50;;;;;;5043740;28;20231;-57
2023/03/04 09:39:06;;;;;;;4.22;2.58;;;19.70;66.20;;;;;;5044741;28;20203;-61
2023/03/04 09:41:38;;;;;;;3.30;2.30;;;19.70;66.00;;;;;;5050072;28;20200;-54
2023/03/04 09:44:10;;;;;;;2.42;1.90;;;19.70;65.90;;;;;;5040922;28;20203;-57
2023/03/04 09:46:39;;;;;;;4.22;2.17;;;19.70;65.80;;;;;;5047197;28;20203;-53
2023/03/04 09:49:10;;;;;;;4.97;2.50;;;19.70;65.70;;;;;;5043237;28;20195;-60
2023/03/04 09:51:48;;;;;;;3.17;2.47;;;19.70;65.70;;;;;;5047398;28;20659;-58
2023/03/04 09:54:22;;;;;;;2.90;1.95;;;19.70;65.50;;;;;;5049660;28;20191;-62
2023/03/04 09:56:52;;;;;;;3.38;1.90;;;19.70;65.50;;;;;;5047309;28;20246;-55
2023/03/04 09:59:25;;;;;;;2.83;2.15;;;19.70;65.80;;;;;;5043163;28;20215;-60
2023/03/04 10:01:55;;;;;;;2.47;2.05;;;19.70;65.90;;;;;;5039910;28;20195;-70
2023/03/04 10:04:31;;;;;;;7.03;2.03;;;19.70;65.90;;;;;;5042341;28;20213;-68
2023/03/04 10:07:01;;;;;;;3.20;2.03;;;19.80;66.10;;;;;;5040975;28;20192;-67
2023/03/04 10:09:32;;;;;;;3.42;2.20;;;19.80;66.20;;;;;;5043672;28;20204;-63
2023/03/04 10:12:04;;;;;;;4.18;2.13;;;19.80;66.20;;;;;;5038692;28;20195;-65
2023/03/04 10:14:35;;;;;;;3.47;1.90;;;19.80;66.30;;;;;;5038765;28;20682;-65
2023/03/04 10:17:09;;;;;;;5.65;3.50;;;19.90;66.40;;;;;;5040887;28;20203;-66
2023/03/04 10:19:52;;;;;;;2.13;1.92;;;19.90;66.50;;;;;;5040797;28;20196;-62
2023/03/04 10:22:28;;;;;;;2.88;2.30;;;19.90;66.60;;;;;;5047946;28;20468;-65
2023/03/04 10:24:57;;;;;;;3.25;2.00;;;19.90;66.70;;;;;;5046093;28;20659;-65
2023/03/04 10:27:24;;;;;;;3.10;2.75;;;19.90;66.70;;;;;;5045820;28;20324;-63
2023/03/04 10:29:51;;;;;;;2.60;1.80;;;20.00;66.80;;;;;;5044919;28;20236;-62
2023/03/04 10:32:19;;;;;;;2.47;1.85;;;20.00;67.00;;;;;;5040334;28;20578;-62
2023/03/04 10:34:46;;;;;;;3.05;1.90;;;20.00;67.00;;;;;;5041035;28;20198;-63
2023/03/04 10:37:13;;;;;;;3.85;2.03;;;20.00;67.00;;;;;;5044739;28;20203;-64
2023/03/04 10:39:43;;;;;;;3.17;2.10;;;20.00;67.10;;;;;;5049483;28;20200;-64
2023/03/04 10:42:26;;;;;;;1.90;1.70;;;20.10;67.20;;;;;;5042434;28;20195;-63
2023/03/04 10:44:55;;;;;;;2.65;1.85;;;20.10;67.30;;;;;;5048686;28;20561;-64
2023/03/04 10:47:25;;;;;;;2.80;2.28;;;20.10;67.30;;;;;;5043388;28;20202;-62
2023/03/04 10:49:54;;;;;;;3.78;2.38;;;20.10;67.30;;;;;;5053737;28;20736;-64
2023/03/04 10:52:28;;;;;;;2.50;2.15;;;20.10;67.40;;;;;;5044376;28;20203;-63
2023/03/04 10:54:58;;;;;;;3.95;2.17;;;20.10;67.40;;;;;;5043167;28;20215;-64
2023/03/04 10:57:35;;;;;;;3.15;1.75;;;20.10;67.50;;;;;;5052862;28;20199;-62
2023/03/04 11:00:18;;;;;;;1.50;1.35;;;20.10;67.50;;;;;;5047337;28;20206;-65
2023/03/04 11:02:46;;;;;;;3.13;1.77;;;20.10;67.50;;;;;;5042315;28;20198;-67
2023/03/04 11:05:18;;;;;;;2.92;2.58;;;20.20;67.60;;;;;;5045643;28;20194;-63
2023/03/04 11:07:46;;;;;;;3.20;2.25;;;20.20;67.70;;;;;;5040911;28;20196;-63
2023/03/04 11:10:18;;;;;;;2.50;1.60;;;20.20;67.70;;;;;;5042622;28;20208;-63
2023/03/04 11:12:49;;;;;;;3.10;1.73;;;20.20;67.80;;;;;;5045882;28;20652;-59
2023/03/04 11:15:23;;;;;;;2.17;1.70;;;20.20;67.80;;;;;;5044199;28;20205;-58
2023/03/04 11:17:53;;;;;;;3.65;1.70;;;20.20;67.80;;;;;;5044703;28;20191;-57
2023/03/04 11:20:29;;;;;;;2.75;1.83;;;20.20;67.90;;;;;;5038459;28;20219;-54
2023/03/04 11:22:59;;;;;;;1.95;1.60;;;20.20;67.90;;;;;;5039101;28;20582;-61
2023/03/04 11:25:30;;;;;;;6.95;2.15;;;20.20;67.90;;;;;;5050272;28;20199;-57
2023/03/04 11:28:01;;;;;;;1.95;1.75;;;20.20;67.90;;;;;;5047778;28;20191;-60
2023/03/04 11:30:41;;;;;;;3.20;2.00;;;20.20;68.00;;;;;;5040432;28;20198;-66
2023/03/04 11:33:17;;;;;;;2.20;2.00;;;20.20;68.00;;;;;;5043927;28;20202;-63
2023/03/04 11:35:53;;;;;;;2.53;1.50;;;20.20;68.80;;;;;;5043639;28;20474;-63
2023/03/04 11:38:21;;;;;;;3.00;1.20;;;20.20;68.00;;;;;;5041673;28;20199;-67
2023/03/04 11:40:53;;;;;;;2.90;1.80;;;20.30;69.00;;;;;;5037139;28;20203;-62
2023/03/04 11:43:24;;;;;;;1.95;1.52;;;20.30;68.20;;;;;;5040940;28;20199;-60
2023/03/04 11:46:18;;;;;;;3.10;1.67;;;20.30;68.20;;;;;;5039959;28;20206;-62
2023/03/04 11:48:52;;;;;;;2.47;1.57;;;20.30;68.30;;;;;;5048603;28;20200;-64
2023/03/04 11:51:24;;;;;;;2.35;1.92;;;20.30;68.30;;;;;;5046651;28;20462;-65
2023/03/04 11:54:06;;;;;;;1.70;1.60;;;20.30;68.30;;;;;;5049021;28;20196;-61
2023/03/04 11:56:39;;;;;;;2.85;1.98;;;20.30;68.40;;;;;;5040780;28;20215;-68
2023/03/04 11:59:42;;;;;;;2.40;1.65;;;20.30;68.40;;;;;;5046141;28;20191;-61
2023/03/04 12:02:14;;;;;;;1.98;1.40;;;20.30;68.40;;;;;;5045332;28;20201;-57
2023/03/04 12:05:05;;;;;;;2.47;1.83;;;20.30;68.10;;;;;;5050839;28;20575;-60
2023/03/04 12:07:48;;;;;;;7.82;1.70;;;20.20;68.00;;;;;;5042247;28;20472;-55
2023/03/04 12:10:23;;;;;;;2.05;1.60;;;20.20;67.90;;;;;;5045664;28;20207;-61
2023/03/04 12:13:12;;;;;;;3.72;2.10;;;20.30;68.10;;;;;;5050389;28;20203;-64
2023/03/04 12:15:49;;;;;;;4.33;1.97;;;20.30;68.10;;;;;;5047747;28;20226;-61
2023/03/04 12:18:29;;;;;;;3.72;2.15;;;20.30;68.00;;;;;;5049785;28;20462;-59
2023/03/04 12:21:10;;;;;;;3.35;1.80;;;20.30;67.90;;;;;;5040962;28;20214;-63
2023/03/04 12:24:11;;;;;;;2.65;2.22;;;20.40;68.00;;;;;;5039511;28;20191;-61
2023/03/04 12:26:42;;;;;;;3.55;2.40;;;20.30;68.00;;;;;;5031272;28;20195;-63
2023/03/04 12:29:20;;;;;;;3.25;2.17;;;20.30;68.10;;;;;;5051854;28;20198;-55
2023/03/04 12:31:50;;;;;;;2.17;1.40;;;20.30;68.20;;;;;;5039287;28;20191;-65
2023/03/04 12:34:32;;;;;;;3.03;1.75;;;20.30;68.20;;;;;;5049839;28;20203;-66
2023/03/04 12:37:27;;;;;;;2.63;1.60;;;20.30;68.20;;;;;;5051497;28;20216;-63
2023/03/04 12:40:08;;;;;;;2.15;1.60;;;20.40;68.40;;;;;;5041601;28;20281;-63
2023/03/04 12:42:47;;;;;;;9.10;2.83;;;20.40;68.50;;;;;;5044681;28;20214;-62
2023/03/04 12:45:22;;;;;;;2.97;1.70;;;20.40;68.40;;;;;;5043206;28;20473;-60
2023/03/04 12:47:58;;;;;;;4.40;2.20;;;20.40;68.40;;;;;;5040716;28;20303;-59
2023/03/04 12:50:40;;;;;;;3.05;1.50;;;20.40;69.20;;;;;;5043672;28;20198;-62
2023/03/04 12:53:17;;;;;;;3.10;2.00;;;20.40;68.50;;;;;;5047691;28;20623;-63
2023/03/04 12:55:46;;;;;;;4.93;1.97;;;20.40;68.40;;;;;;5049591;28;20202;-62